sensor_id;sensor_type;location;lat;lon;timestamp;temperature;humidity
23629;DHT22;11991;57.150;-2.134;2023-03-01T00:01:07;5.00;99.90
23629;DHT22;11991;57.150;-2.134;2023-03-01T00:03:35;5.00;99.90
23629;DHT22;11991;57.150;-2.134;2023-03-01T00:06:03;5.00;99.90
23629;DHT22;11991;57.150;-2.134;2023-03-01T00:08:30;4.90;99.90
23629;DHT22;11991;57.150;-2.134;2023-03-01T00:13:45;4.90;99.90
23629;DHT22;11991;57.150;-2.134;2023-03-01T00:16:24;4.90;99.90
23629;DHT22;11991;57.150;-2.134;2023-03-01T00:18:53;4.90;99.90
23629;DHT22;11991;57.150;-2.134;2023-03-01T00:21:22;4.90;99.90
23629;DHT22;11991;57.150;-2.134;2023-03-01T00:23:50;4.90;99.90
23629;DHT22;11991;57.150;-2.134;2023-03-01T00:26:19;4.90;99.90
23629;DHT22;11991;57.150;-2.134;2023-03-01T00:28:46;4.80;99.90
23629;DHT22;11991;57.150;-2.134;2023-03-01T00:31:16;4.80;99.90
23629;DHT22;11991;57.150;-2.134;2023-03-01T00:33:44;4.80;99.90
23629;DHT22;11991;57.150;-2.134;2023-03-01T00:36:13;4.80;99.90
23629;DHT22;11991;57.150;-2.134;2023-03-01T00:38:44;4.80;99.90
23629;DHT22;11991;57.150;-2.134;2023-03-01T00:41:15;4.70;99.90
23629;DHT22;11991;57.150;-2.134;2023-03-01T00:43:43;4.70;99.90
23629;DHT22;11991;57.150;-2.134;2023-03-01T00:46:14;4.70;99.90
23629;DHT22;11991;57.150;-2.134;2023-03-01T00:48:42;4.60;99.90
23629;DHT22;11991;57.150;-2.134;2023-03-01T00:53:37;4.50;99.90
23629;DHT22;11991;57.150;-2.134;2023-03-01T00:56:05;4.50;99.90
23629;DHT22;11991;57.150;-2.134;2023-03-01T00:58:34;4.50;99.90
23629;DHT22;11991;57.150;-2.134;2023-03-01T01:01:07;4.40;99.90
23629;DHT22;11991;57.150;-2.134;2023-03-01T01:06:24;4.40;99.90
23629;DHT22;11991;57.150;-2.134;2023-03-01T01:08:53;4.30;99.90
23629;DHT22;11991;57.150;-2.134;2023-03-01T01:11:23;4.30;99.90
23629;DHT22;11991;57.150;-2.134;2023-03-01T01:13:51;4.30;99.90
23629;DHT22;11991;57.150;-2.134;2023-03-01T01:16:19;4.30;99.90
23629;DHT22;11991;57.150;-2.134;2023-03-01T01:18:49;4.20;99.90
23629;DHT22;11991;57.150;-2.134;2023-03-01T01:21:18;4.20;99.90
23629;DHT22;11991;57.150;-2.134;2023-03-01T01:23:47;4.20;99.90
23629;DHT22;11991;57.150;-2.134;2023-03-01T01:26:24;4.20;99.90
23629;DHT22;11991;57.150;-2.134;2023-03-01T01:28:52;4.10;99.90
23629;DHT22;11991;57.150;-2.134;2023-03-01T01:31:20;4.10;99.90
23629;DHT22;11991;57.150;-2.134;2023-03-01T01:33:51;4.10;99.90
23629;DHT22;11991;57.150;-2.134;2023-03-01T01:36:18;4.00;99.90
23629;DHT22;11991;57.150;-2.134;2023-03-01T01:38:45;4.00;99.90
23629;DHT22;11991;57.150;-2.134;2023-03-01T01:41:13;4.00;99.90
23629;DHT22;11991;57.150;-2.134;2023-03-01T01:44:28;4.00;99.90
23629;DHT22;11991;57.150;-2.134;2023-03-01T01:46:39;4.00;99.90
23629;DHT22;11991;57.150;-2.134;2023-03-01T01:49:24;4.00;99.90
23629;DHT22;11991;57.150;-2.134;2023-03-01T01:55:08;3.90;99.90
23629;DHT22;11991;57.150;-2.134;2023-03-01T01:57:46;3.90;99.90
23629;DHT22;11991;57.150;-2.134;2023-03-01T02:00:18;3.90;99.90
23629;DHT22;11991;57.150;-2.134;2023-03-01T02:02:48;3.90;99.90
23629;DHT22;11991;57.150;-2.134;2023-03-01T02:08:11;3.80;99.90
23629;DHT22;11991;57.150;-2.134;2023-03-01T02:10:40;3.80;99.90
23629;DHT22;11991;57.150;-2.134;2023-03-01T02:13:09;3.80;99.90
23629;DHT22;11991;57.150;-2.134;2023-03-01T02:15:38;3.80;99.90
23629;DHT22;11991;57.150;-2.134;2023-03-01T02:18:07;3.80;99.90
23629;DHT22;11991;57.150;-2.134;2023-03-01T02:23:07;3.80;99.90
23629;DHT22;11991;57.150;-2.134;2023-03-01T02:30:44;3.80;99.90
23629;DHT22;11991;57.150;-2.134;2023-03-01T02:33:32;3.80;99.90
23629;DHT22;11991;57.150;-2.134;2023-03-01T02:36:03;3.80;99.90
23629;DHT22;11991;57.150;-2.134;2023-03-01T02:38:31;3.80;99.90
23629;DHT22;11991;57.150;-2.134;2023-03-01T02:41:00;3.80;99.90
23629;DHT22;11991;57.150;-2.134;2023-03-01T02:43:31;3.80;99.90
23629;DHT22;11991;57.150;-2.134;2023-03-01T02:46:04;3.80;99.90
23629;DHT22;11991;57.150;-2.134;2023-03-01T02:48:47;3.80;99.90
23629;DHT22;11991;57.150;-2.134;2023-03-01T02:57:30;4.00;99.90
23629;DHT22;11991;57.150;-2.134;2023-03-01T03:00:03;4.00;99.90
23629;DHT22;11991;57.150;-2.134;2023-03-01T03:02:35;4.00;99.90
23629;DHT22;11991;57.150;-2.134;2023-03-01T03:05:25;4.00;99.90
23629;DHT22;11991;57.150;-2.134;2023-03-01T03:07:56;4.00;99.90
23629;DHT22;11991;57.150;-2.134;2023-03-01T03:10:32;4.00;99.90
23629;DHT22;11991;57.150;-2.134;2023-03-01T03:13:05;4.00;99.90
23629;DHT22;11991;57.150;-2.134;2023-03-01T03:15:34;4.00;99.90
23629;DHT22;11991;57.150;-2.134;2023-03-01T03:18:05;4.00;99.90
23629;DHT22;11991;57.150;-2.134;2023-03-01T03:20:34;4.00;99.90
23629;DHT22;11991;57.150;-2.134;2023-03-01T03:23:01;4.00;99.90
23629;DHT22;11991;57.150;-2.134;2023-03-01T03:25:29;4.10;99.90
23629;DHT22;11991;57.150;-2.134;2023-03-01T03:27:57;4.10;99.90
23629;DHT22;11991;57.150;-2.134;2023-03-01T03:30:27;4.10;99.90
23629;DHT22;11991;57.150;-2.134;2023-03-01T03:32:56;4.00;99.90
23629;DHT22;11991;57.150;-2.134;2023-03-01T03:35:29;4.00;99.90
23629;DHT22;11991;57.150;-2.134;2023-03-01T03:38:03;4.00;99.90
23629;DHT22;11991;57.150;-2.134;2023-03-01T03:43:01;4.00;99.90
23629;DHT22;11991;57.150;-2.134;2023-03-01T03:45:29;4.00;99.90
23629;DHT22;11991;57.150;-2.134;2023-03-01T03:47:56;4.00;99.90
23629;DHT22;11991;57.150;-2.134;2023-03-01T03:50:23;4.00;99.90
23629;DHT22;11991;57.150;-2.134;2023-03-01T03:52:51;4.00;99.90
23629;DHT22;11991;57.150;-2.134;2023-03-01T03:55:18;4.00;99.90
23629;DHT22;11991;57.150;-2.134;2023-03-01T03:57:47;4.00;99.90
23629;DHT22;11991;57.150;-2.134;2023-03-01T04:00:20;4.00;99.90
23629;DHT22;11991;57.150;-2.134;2023-03-01T04:02:48;4.00;99.90
23629;DHT22;11991;57.150;-2.134;2023-03-01T04:05:17;4.10;99.90
23629;DHT22;11991;57.150;-2.134;2023-03-01T04:07:45;4.10;99.90
23629;DHT22;11991;57.150;-2.134;2023-03-01T04:10:14;4.10;99.90
23629;DHT22;11991;57.150;-2.134;2023-03-01T04:12:42;4.10;99.90
23629;DHT22;11991;57.150;-2.134;2023-03-01T04:15:12;4.10;99.90
23629;DHT22;11991;57.150;-2.134;2023-03-01T04:17:41;4.10;99.90
23629;DHT22;11991;57.150;-2.134;2023-03-01T04:20:10;4.10;99.90
23629;DHT22;11991;57.150;-2.134;2023-03-01T04:22:40;4.10;99.90
23629;DHT22;11991;57.150;-2.134;2023-03-01T04:25:07;4.10;99.90
23629;DHT22;11991;57.150;-2.134;2023-03-01T04:27:35;4.10;99.90
23629;DHT22;11991;57.150;-2.134;2023-03-01T04:30:03;4.10;99.90
23629;DHT22;11991;57.150;-2.134;2023-03-01T04:32:31;4.10;99.90
23629;DHT22;11991;57.150;-2.134;2023-03-01T04:34:58;4.10;99.90
23629;DHT22;11991;57.150;-2.134;2023-03-01T04:37:26;4.10;99.90
23629;DHT22;11991;57.150;-2.134;2023-03-01T04:39:53;4.10;99.90
23629;DHT22;11991;57.150;-2.134;2023-03-01T04:42:21;4.10;99.90
23629;DHT22;11991;57.150;-2.134;2023-03-01T04:44:48;4.20;99.90
23629;DHT22;11991;57.150;-2.134;2023-03-01T04:47:18;4.20;99.90
23629;DHT22;11991;57.150;-2.134;2023-03-01T04:49:45;4.20;99.90
23629;DHT22;11991;57.150;-2.134;2023-03-01T04:52:12;4.20;99.90
23629;DHT22;11991;57.150;-2.134;2023-03-01T04:54:39;4.30;99.90
23629;DHT22;11991;57.150;-2.134;2023-03-01T04:57:06;4.30;99.90
23629;DHT22;11991;57.150;-2.134;2023-03-01T04:59:33;4.40;99.90
23629;DHT22;11991;57.150;-2.134;2023-03-01T05:02:03;4.40;99.90
23629;DHT22;11991;57.150;-2.134;2023-03-01T05:04:30;4.50;99.90
23629;DHT22;11991;57.150;-2.134;2023-03-01T05:06:58;4.50;99.90
23629;DHT22;11991;57.150;-2.134;2023-03-01T05:09:25;4.50;99.90
23629;DHT22;11991;57.150;-2.134;2023-03-01T05:11:52;4.50;99.90
23629;DHT22;11991;57.150;-2.134;2023-03-01T05:14:19;4.50;99.90
23629;DHT22;11991;57.150;-2.134;2023-03-01T05:16:47;4.50;99.90
23629;DHT22;11991;57.150;-2.134;2023-03-01T05:19:14;4.50;99.90
23629;DHT22;11991;57.150;-2.134;2023-03-01T05:21:49;4.50;99.90
23629;DHT22;11991;57.150;-2.134;2023-03-01T05:24:30;4.50;99.90
23629;DHT22;11991;57.150;-2.134;2023-03-01T05:26:58;4.50;99.90
23629;DHT22;11991;57.150;-2.134;2023-03-01T05:29:27;4.50;99.90
23629;DHT22;11991;57.150;-2.134;2023-03-01T05:31:58;4.50;99.90
23629;DHT22;11991;57.150;-2.134;2023-03-01T05:34:29;4.50;99.90
23629;DHT22;11991;57.150;-2.134;2023-03-01T05:36:57;4.50;99.90
23629;DHT22;11991;57.150;-2.134;2023-03-01T05:39:26;4.50;99.90
23629;DHT22;11991;57.150;-2.134;2023-03-01T05:41:57;4.50;99.90
23629;DHT22;11991;57.150;-2.134;2023-03-01T05:44:25;4.50;99.90
23629;DHT22;11991;57.150;-2.134;2023-03-01T05:46:52;4.50;99.90
23629;DHT22;11991;57.150;-2.134;2023-03-01T05:49:20;4.50;99.90
23629;DHT22;11991;57.150;-2.134;2023-03-01T05:51:49;4.50;99.90
23629;DHT22;11991;57.150;-2.134;2023-03-01T05:54:18;4.50;99.90
23629;DHT22;11991;57.150;-2.134;2023-03-01T05:56:45;4.60;99.90
23629;DHT22;11991;57.150;-2.134;2023-03-01T05:59:13;4.60;99.90
23629;DHT22;11991;57.150;-2.134;2023-03-01T06:01:43;4.60;99.90
23629;DHT22;11991;57.150;-2.134;2023-03-01T06:04:10;4.60;99.90
23629;DHT22;11991;57.150;-2.134;2023-03-01T06:06:37;4.60;99.90
23629;DHT22;11991;57.150;-2.134;2023-03-01T06:09:06;4.70;99.90
23629;DHT22;11991;57.150;-2.134;2023-03-01T06:11:36;4.70;99.90
23629;DHT22;11991;57.150;-2.134;2023-03-01T06:14:05;4.70;99.90
23629;DHT22;11991;57.150;-2.134;2023-03-01T06:16:33;4.70;99.90
23629;DHT22;11991;57.150;-2.134;2023-03-01T06:19:00;4.70;99.90
23629;DHT22;11991;57.150;-2.134;2023-03-01T06:21:27;4.70;99.90
23629;DHT22;11991;57.150;-2.134;2023-03-01T06:23:54;4.80;99.90
23629;DHT22;11991;57.150;-2.134;2023-03-01T06:26:22;4.80;99.90
23629;DHT22;11991;57.150;-2.134;2023-03-01T06:28:49;4.80;99.90
23629;DHT22;11991;57.150;-2.134;2023-03-01T06:31:16;4.80;99.90
23629;DHT22;11991;57.150;-2.134;2023-03-01T06:33:44;4.80;99.90
23629;DHT22;11991;57.150;-2.134;2023-03-01T06:36:11;4.90;99.90
23629;DHT22;11991;57.150;-2.134;2023-03-01T06:38:38;4.90;99.90
23629;DHT22;11991;57.150;-2.134;2023-03-01T06:41:07;4.90;99.90
23629;DHT22;11991;57.150;-2.134;2023-03-01T06:43:35;4.90;99.90
23629;DHT22;11991;57.150;-2.134;2023-03-01T06:46:06;4.90;99.90
23629;DHT22;11991;57.150;-2.134;2023-03-01T06:48:34;4.90;99.90
23629;DHT22;11991;57.150;-2.134;2023-03-01T06:51:01;5.00;99.90
23629;DHT22;11991;57.150;-2.134;2023-03-01T06:53:29;5.00;99.90
23629;DHT22;11991;57.150;-2.134;2023-03-01T06:55:57;5.00;99.90
23629;DHT22;11991;57.150;-2.134;2023-03-01T06:58:26;5.00;99.90
23629;DHT22;11991;57.150;-2.134;2023-03-01T07:00:53;5.10;99.90
23629;DHT22;11991;57.150;-2.134;2023-03-01T07:03:20;5.10;99.90
23629;DHT22;11991;57.150;-2.134;2023-03-01T07:05:51;5.10;99.90
23629;DHT22;11991;57.150;-2.134;2023-03-01T07:08:19;5.10;99.90
23629;DHT22;11991;57.150;-2.134;2023-03-01T07:10:47;5.00;99.90
23629;DHT22;11991;57.150;-2.134;2023-03-01T07:13:15;5.00;99.90
23629;DHT22;11991;57.150;-2.134;2023-03-01T07:15:42;5.00;99.90
23629;DHT22;11991;57.150;-2.134;2023-03-01T07:18:09;4.90;99.90
23629;DHT22;11991;57.150;-2.134;2023-03-01T07:20:36;4.90;99.90
23629;DHT22;11991;57.150;-2.134;2023-03-01T07:23:05;4.90;99.90
23629;DHT22;11991;57.150;-2.134;2023-03-01T07:25:33;5.00;99.90
23629;DHT22;11991;57.150;-2.134;2023-03-01T07:28:00;5.00;99.90
23629;DHT22;11991;57.150;-2.134;2023-03-01T07:30:27;5.00;99.90
23629;DHT22;11991;57.150;-2.134;2023-03-01T07:32:56;5.00;99.90
23629;DHT22;11991;57.150;-2.134;2023-03-01T07:35:26;5.00;99.90
23629;DHT22;11991;57.150;-2.134;2023-03-01T07:37:53;4.90;99.90
23629;DHT22;11991;57.150;-2.134;2023-03-01T07:40:20;4.90;99.90
23629;DHT22;11991;57.150;-2.134;2023-03-01T07:42:48;4.90;99.90
23629;DHT22;11991;57.150;-2.134;2023-03-01T07:45:15;5.00;99.90
23629;DHT22;11991;57.150;-2.134;2023-03-01T07:47:42;5.00;99.90
23629;DHT22;11991;57.150;-2.134;2023-03-01T07:50:10;5.00;99.90
23629;DHT22;11991;57.150;-2.134;2023-03-01T07:52:37;5.00;99.90
23629;DHT22;11991;57.150;-2.134;2023-03-01T07:55:05;5.00;99.90
23629;DHT22;11991;57.150;-2.134;2023-03-01T07:57:32;5.00;99.90
23629;DHT22;11991;57.150;-2.134;2023-03-01T07:59:59;5.00;99.90
23629;DHT22;11991;57.150;-2.134;2023-03-01T08:02:26;5.00;99.90
23629;DHT22;11991;57.150;-2.134;2023-03-01T08:04:53;5.00;99.90
23629;DHT22;11991;57.150;-2.134;2023-03-01T08:07:20;5.00;99.90
23629;DHT22;11991;57.150;-2.134;2023-03-01T08:09:48;5.00;99.90
23629;DHT22;11991;57.150;-2.134;2023-03-01T08:12:15;5.00;99.90
23629;DHT22;11991;57.150;-2.134;2023-03-01T08:14:45;5.00;99.90
23629;DHT22;11991;57.150;-2.134;2023-03-01T08:17:15;5.00;99.90
23629;DHT22;11991;57.150;-2.134;2023-03-01T08:19:43;5.00;99.90
23629;DHT22;11991;57.150;-2.134;2023-03-01T08:22:10;5.00;99.90
23629;DHT22;11991;57.150;-2.134;2023-03-01T08:24:37;5.00;99.90
23629;DHT22;11991;57.150;-2.134;2023-03-01T08:27:04;5.00;99.90
23629;DHT22;11991;57.150;-2.134;2023-03-01T08:29:33;5.00;99.90
23629;DHT22;11991;57.150;-2.134;2023-03-01T08:32:00;5.00;99.90
23629;DHT22;11991;57.150;-2.134;2023-03-01T08:34:27;5.10;99.90
23629;DHT22;11991;57.150;-2.134;2023-03-01T08:36:55;5.00;99.90
23629;DHT22;11991;57.150;-2.134;2023-03-01T08:39:22;5.10;99.90
23629;DHT22;11991;57.150;-2.134;2023-03-01T08:41:49;5.10;99.90
23629;DHT22;11991;57.150;-2.134;2023-03-01T08:44:16;5.20;99.90
23629;DHT22;11991;57.150;-2.134;2023-03-01T08:46:45;5.20;99.90
23629;DHT22;11991;57.150;-2.134;2023-03-01T08:49:19;5.20;99.90
23629;DHT22;11991;57.150;-2.134;2023-03-01T08:51:47;5.30;99.90
23629;DHT22;11991;57.150;-2.134;2023-03-01T08:54:19;5.30;99.90
23629;DHT22;11991;57.150;-2.134;2023-03-01T08:56:48;5.30;99.90
23629;DHT22;11991;57.150;-2.134;2023-03-01T08:59:16;5.30;99.90
23629;DHT22;11991;57.150;-2.134;2023-03-01T09:01:44;5.30;99.90
23629;DHT22;11991;57.150;-2.134;2023-03-01T09:04:12;5.40;99.90
23629;DHT22;11991;57.150;-2.134;2023-03-01T09:06:39;5.50;99.90
23629;DHT22;11991;57.150;-2.134;2023-03-01T09:09:10;5.50;99.90
23629;DHT22;11991;57.150;-2.134;2023-03-01T09:11:39;5.50;99.90
23629;DHT22;11991;57.150;-2.134;2023-03-01T09:14:06;5.60;99.90
23629;DHT22;11991;57.150;-2.134;2023-03-01T09:16:33;5.60;99.90
23629;DHT22;11991;57.150;-2.134;2023-03-01T09:19:03;5.60;99.90
23629;DHT22;11991;57.150;-2.134;2023-03-01T09:21:31;5.70;99.90
23629;DHT22;11991;57.150;-2.134;2023-03-01T09:24:13;5.60;99.90
23629;DHT22;11991;57.150;-2.134;2023-03-01T09:26:41;5.70;99.90
23629;DHT22;11991;57.150;-2.134;2023-03-01T09:29:08;5.70;99.90
23629;DHT22;11991;57.150;-2.134;2023-03-01T09:31:37;5.70;99.90
23629;DHT22;11991;57.150;-2.134;2023-03-01T09:34:04;5.70;99.90
23629;DHT22;11991;57.150;-2.134;2023-03-01T09:36:31;5.80;99.90
23629;DHT22;11991;57.150;-2.134;2023-03-01T09:39:00;5.80;99.90
23629;DHT22;11991;57.150;-2.134;2023-03-01T09:41:47;5.80;99.90
23629;DHT22;11991;57.150;-2.134;2023-03-01T09:44:42;5.90;99.90
23629;DHT22;11991;57.150;-2.134;2023-03-01T09:47:24;6.00;99.90
23629;DHT22;11991;57.150;-2.134;2023-03-01T09:50:12;6.10;99.90
23629;DHT22;11991;57.150;-2.134;2023-03-01T09:53:05;6.20;99.90
23629;DHT22;11991;57.150;-2.134;2023-03-01T10:00:59;6.10;99.90
23629;DHT22;11991;57.150;-2.134;2023-03-01T10:04:02;6.20;99.90
23629;DHT22;11991;57.150;-2.134;2023-03-01T10:06:32;6.20;99.90
23629;DHT22;11991;57.150;-2.134;2023-03-01T10:09:12;6.30;99.90
23629;DHT22;11991;57.150;-2.134;2023-03-01T10:11:45;6.40;99.90
23629;DHT22;11991;57.150;-2.134;2023-03-01T10:16:53;6.40;99.90
23629;DHT22;11991;57.150;-2.134;2023-03-01T10:19:44;6.40;99.90
23629;DHT22;11991;57.150;-2.134;2023-03-01T10:22:18;6.40;99.90
23629;DHT22;11991;57.150;-2.134;2023-03-01T10:24:49;6.40;99.90
23629;DHT22;11991;57.150;-2.134;2023-03-01T10:27:26;6.40;99.90
23629;DHT22;11991;57.150;-2.134;2023-03-01T10:32:53;6.60;99.90
23629;DHT22;11991;57.150;-2.134;2023-03-01T10:35:26;6.70;99.90
23629;DHT22;11991;57.150;-2.134;2023-03-01T10:37:58;6.70;99.90
23629;DHT22;11991;57.150;-2.134;2023-03-01T10:40:30;6.80;99.90
23629;DHT22;11991;57.150;-2.134;2023-03-01T10:42:58;6.70;99.90
23629;DHT22;11991;57.150;-2.134;2023-03-01T10:45:35;6.80;99.90
23629;DHT22;11991;57.150;-2.134;2023-03-01T10:48:24;6.80;99.90
23629;DHT22;11991;57.150;-2.134;2023-03-01T10:53:29;6.90;99.90
23629;DHT22;11991;57.150;-2.134;2023-03-01T10:56:03;6.90;99.90
23629;DHT22;11991;57.150;-2.134;2023-03-01T10:58:34;6.80;99.90
23629;DHT22;11991;57.150;-2.134;2023-03-01T11:01:05;6.70;99.90
23629;DHT22;11991;57.150;-2.134;2023-03-01T11:03:35;6.60;99.90
23629;DHT22;11991;57.150;-2.134;2023-03-01T11:08:45;6.50;99.90
23629;DHT22;11991;57.150;-2.134;2023-03-01T11:13:55;6.40;99.90
23629;DHT22;11991;57.150;-2.134;2023-03-01T11:19:15;6.40;99.90
23629;DHT22;11991;57.150;-2.134;2023-03-01T11:22:03;6.50;99.90
23629;DHT22;11991;57.150;-2.134;2023-03-01T11:24:51;6.60;99.90
23629;DHT22;11991;57.150;-2.134;2023-03-01T11:27:44;6.70;99.90
23629;DHT22;11991;57.150;-2.134;2023-03-01T11:36:05;6.70;99.90
23629;DHT22;11991;57.150;-2.134;2023-03-01T11:38:35;6.60;99.90
23629;DHT22;11991;57.150;-2.134;2023-03-01T11:41:08;6.60;99.90
23629;DHT22;11991;57.150;-2.134;2023-03-01T12:21:59;6.80;99.90
23629;DHT22;11991;57.150;-2.134;2023-03-01T12:24:59;6.70;99.90
23629;DHT22;11991;57.150;-2.134;2023-03-01T12:44:10;7.00;99.90
23629;DHT22;11991;57.150;-2.134;2023-03-01T12:46:52;7.00;99.90
23629;DHT22;11991;57.150;-2.134;2023-03-01T12:49:31;7.10;99.90
23629;DHT22;11991;57.150;-2.134;2023-03-01T12:54:37;7.30;99.90
23629;DHT22;11991;57.150;-2.134;2023-03-01T12:57:26;7.30;99.90
23629;DHT22;11991;57.150;-2.134;2023-03-01T13:00:51;7.40;99.90
23629;DHT22;11991;57.150;-2.134;2023-03-01T13:11:01;7.60;99.90
23629;DHT22;11991;57.150;-2.134;2023-03-01T13:13:29;7.70;99.90
23629;DHT22;11991;57.150;-2.134;2023-03-01T13:15:56;7.70;99.90
23629;DHT22;11991;57.150;-2.134;2023-03-01T13:20:57;7.80;99.90
23629;DHT22;11991;57.150;-2.134;2023-03-01T13:23:34;7.80;99.90
23629;DHT22;11991;57.150;-2.134;2023-03-01T13:26:17;7.80;99.90
23629;DHT22;11991;57.150;-2.134;2023-03-01T13:33:49;7.80;99.90
23629;DHT22;11991;57.150;-2.134;2023-03-01T13:39:05;7.90;99.90
23629;DHT22;11991;57.150;-2.134;2023-03-01T13:41:55;7.90;99.90
23629;DHT22;11991;57.150;-2.134;2023-03-01T13:44:34;7.90;99.90
23629;DHT22;11991;57.150;-2.134;2023-03-01T13:49:47;7.90;99.90
23629;DHT22;11991;57.150;-2.134;2023-03-01T13:52:32;7.90;99.90
23629;DHT22;11991;57.150;-2.134;2023-03-01T13:55:04;8.00;99.90
23629;DHT22;11991;57.150;-2.134;2023-03-01T13:57:34;8.00;99.90
23629;DHT22;11991;57.150;-2.134;2023-03-01T14:00:03;8.00;99.90
23629;DHT22;11991;57.150;-2.134;2023-03-01T14:02:33;8.00;99.90
23629;DHT22;11991;57.150;-2.134;2023-03-01T14:05:01;8.00;99.90
23629;DHT22;11991;57.150;-2.134;2023-03-01T14:07:29;7.90;99.90
23629;DHT22;11991;57.150;-2.134;2023-03-01T14:10:03;7.90;99.90
23629;DHT22;11991;57.150;-2.134;2023-03-01T14:15:19;7.80;99.90
23629;DHT22;11991;57.150;-2.134;2023-03-01T14:20:41;7.80;99.90
23629;DHT22;11991;57.150;-2.134;2023-03-01T14:23:12;7.80;99.90
23629;DHT22;11991;57.150;-2.134;2023-03-01T14:25:50;7.70;99.90
23629;DHT22;11991;57.150;-2.134;2023-03-01T14:28:19;7.70;99.90
23629;DHT22;11991;57.150;-2.134;2023-03-01T14:30:50;7.70;99.90
23629;DHT22;11991;57.150;-2.134;2023-03-01T14:33:27;7.70;99.90
23629;DHT22;11991;57.150;-2.134;2023-03-01T14:36:09;7.70;99.90
23629;DHT22;11991;57.150;-2.134;2023-03-01T14:38:42;7.70;99.90
23629;DHT22;11991;57.150;-2.134;2023-03-01T14:41:21;7.70;99.90
23629;DHT22;11991;57.150;-2.134;2023-03-01T14:43:55;7.70;99.90
23629;DHT22;11991;57.150;-2.134;2023-03-01T14:46:36;7.70;99.90
23629;DHT22;11991;57.150;-2.134;2023-03-01T14:49:12;7.70;99.90
23629;DHT22;11991;57.150;-2.134;2023-03-01T14:51:43;7.70;99.90
23629;DHT22;11991;57.150;-2.134;2023-03-01T14:54:59;7.70;99.90
23629;DHT22;11991;57.150;-2.134;2023-03-01T14:59:54;7.70;99.90
23629;DHT22;11991;57.150;-2.134;2023-03-01T15:02:24;7.80;99.90
23629;DHT22;11991;57.150;-2.134;2023-03-01T15:04:55;7.80;99.90
23629;DHT22;11991;57.150;-2.134;2023-03-01T15:07:35;7.80;99.90
23629;DHT22;11991;57.150;-2.134;2023-03-01T15:10:05;7.90;99.90
23629;DHT22;11991;57.150;-2.134;2023-03-01T15:12:40;7.90;99.90
23629;DHT22;11991;57.150;-2.134;2023-03-01T15:17:52;7.90;99.90
23629;DHT22;11991;57.150;-2.134;2023-03-01T15:20:24;7.90;99.90
23629;DHT22;11991;57.150;-2.134;2023-03-01T15:22:57;8.00;99.90
23629;DHT22;11991;57.150;-2.134;2023-03-01T15:25:26;8.00;99.90
23629;DHT22;11991;57.150;-2.134;2023-03-01T15:27:56;7.90;99.90
23629;DHT22;11991;57.150;-2.134;2023-03-01T15:30:30;7.90;99.90
23629;DHT22;11991;57.150;-2.134;2023-03-01T15:33:31;7.90;99.90
23629;DHT22;11991;57.150;-2.134;2023-03-01T15:36:00;7.90;99.90
23629;DHT22;11991;57.150;-2.134;2023-03-01T15:41:00;7.90;99.90
23629;DHT22;11991;57.150;-2.134;2023-03-01T15:43:45;7.90;99.90
23629;DHT22;11991;57.150;-2.134;2023-03-01T15:48:59;7.90;99.90
23629;DHT22;11991;57.150;-2.134;2023-03-01T15:51:31;7.90;99.90
23629;DHT22;11991;57.150;-2.134;2023-03-01T15:54:02;7.90;99.90
23629;DHT22;11991;57.150;-2.134;2023-03-01T15:56:30;7.90;99.90
23629;DHT22;11991;57.150;-2.134;2023-03-01T15:58:59;7.80;99.90
23629;DHT22;11991;57.150;-2.134;2023-03-01T16:01:27;7.80;99.90
23629;DHT22;11991;57.150;-2.134;2023-03-01T16:03:54;7.80;99.90
23629;DHT22;11991;57.150;-2.134;2023-03-01T16:06:23;7.80;99.90
23629;DHT22;11991;57.150;-2.134;2023-03-01T16:08:51;7.80;99.90
23629;DHT22;11991;57.150;-2.134;2023-03-01T16:11:20;7.80;99.90
23629;DHT22;11991;57.150;-2.134;2023-03-01T16:13:47;7.80;99.90
23629;DHT22;11991;57.150;-2.134;2023-03-01T16:16:16;7.80;99.90
23629;DHT22;11991;57.150;-2.134;2023-03-01T16:18:45;7.70;99.90
23629;DHT22;11991;57.150;-2.134;2023-03-01T16:21:22;7.80;99.90
23629;DHT22;11991;57.150;-2.134;2023-03-01T16:23:52;7.80;99.90
23629;DHT22;11991;57.150;-2.134;2023-03-01T16:26:19;7.80;99.90
23629;DHT22;11991;57.150;-2.134;2023-03-01T16:28:47;7.80;99.90
23629;DHT22;11991;57.150;-2.134;2023-03-01T16:31:20;7.70;99.90
23629;DHT22;11991;57.150;-2.134;2023-03-01T16:33:48;7.70;99.90
23629;DHT22;11991;57.150;-2.134;2023-03-01T16:36:21;7.70;99.90
23629;DHT22;11991;57.150;-2.134;2023-03-01T16:38:51;7.70;99.90
23629;DHT22;11991;57.150;-2.134;2023-03-01T16:41:20;7.70;99.90
23629;DHT22;11991;57.150;-2.134;2023-03-01T16:43:48;7.70;99.90
23629;DHT22;11991;57.150;-2.134;2023-03-01T16:46:19;7.60;99.90
23629;DHT22;11991;57.150;-2.134;2023-03-01T16:48:46;7.50;99.90
23629;DHT22;11991;57.150;-2.134;2023-03-01T16:51:14;7.50;99.90
23629;DHT22;11991;57.150;-2.134;2023-03-01T16:53:42;7.40;99.90
23629;DHT22;11991;57.150;-2.134;2023-03-01T16:56:12;7.40;99.90
23629;DHT22;11991;57.150;-2.134;2023-03-01T16:58:40;7.40;99.90
23629;DHT22;11991;57.150;-2.134;2023-03-01T17:01:11;7.40;99.90
23629;DHT22;11991;57.150;-2.134;2023-03-01T17:03:39;7.30;99.90
23629;DHT22;11991;57.150;-2.134;2023-03-01T17:06:10;7.30;99.90
23629;DHT22;11991;57.150;-2.134;2023-03-01T17:08:38;7.30;99.90
23629;DHT22;11991;57.150;-2.134;2023-03-01T17:11:11;7.30;99.90
23629;DHT22;11991;57.150;-2.134;2023-03-01T17:13:39;7.30;99.90
23629;DHT22;11991;57.150;-2.134;2023-03-01T17:16:09;7.30;99.90
23629;DHT22;11991;57.150;-2.134;2023-03-01T17:18:37;7.20;99.90
23629;DHT22;11991;57.150;-2.134;2023-03-01T17:21:06;7.20;99.90
23629;DHT22;11991;57.150;-2.134;2023-03-01T17:23:35;7.20;99.90
23629;DHT22;11991;57.150;-2.134;2023-03-01T17:26:03;7.20;99.90
23629;DHT22;11991;57.150;-2.134;2023-03-01T17:28:32;7.20;99.90
23629;DHT22;11991;57.150;-2.134;2023-03-01T17:31:00;7.20;99.90
23629;DHT22;11991;57.150;-2.134;2023-03-01T17:33:28;7.30;99.90
23629;DHT22;11991;57.150;-2.134;2023-03-01T17:35:59;7.20;99.90
23629;DHT22;11991;57.150;-2.134;2023-03-01T17:38:27;7.20;99.90
23629;DHT22;11991;57.150;-2.134;2023-03-01T17:40:54;7.20;99.90
23629;DHT22;11991;57.150;-2.134;2023-03-01T17:43:21;7.20;99.90
23629;DHT22;11991;57.150;-2.134;2023-03-01T17:45:49;7.20;99.90
23629;DHT22;11991;57.150;-2.134;2023-03-01T17:48:18;7.20;99.90
23629;DHT22;11991;57.150;-2.134;2023-03-01T17:50:45;7.20;99.90
23629;DHT22;11991;57.150;-2.134;2023-03-01T17:53:13;7.20;99.90
23629;DHT22;11991;57.150;-2.134;2023-03-01T17:55:42;7.20;99.90
23629;DHT22;11991;57.150;-2.134;2023-03-01T17:58:12;7.20;99.90
23629;DHT22;11991;57.150;-2.134;2023-03-01T18:00:40;7.20;99.90
23629;DHT22;11991;57.150;-2.134;2023-03-01T18:03:07;7.20;99.90
23629;DHT22;11991;57.150;-2.134;2023-03-01T18:05:35;7.20;99.90
23629;DHT22;11991;57.150;-2.134;2023-03-01T18:08:04;7.20;99.90
23629;DHT22;11991;57.150;-2.134;2023-03-01T18:10:32;7.20;99.90
23629;DHT22;11991;57.150;-2.134;2023-03-01T18:13:03;7.20;99.90
23629;DHT22;11991;57.150;-2.134;2023-03-01T18:15:31;7.20;99.90
23629;DHT22;11991;57.150;-2.134;2023-03-01T18:17:59;7.20;99.90
23629;DHT22;11991;57.150;-2.134;2023-03-01T18:20:26;7.20;99.90
23629;DHT22;11991;57.150;-2.134;2023-03-01T18:22:53;7.20;99.90
23629;DHT22;11991;57.150;-2.134;2023-03-01T18:25:20;7.10;99.90